createdAt,value
2023-05-15T00:00:46.196Z,16.08
2023-05-15T00:03:13.793Z,15.93
2023-05-15T00:05:41.113Z,16.37
2023-05-15T00:08:08.420Z,16.37
2023-05-15T00:10:35.927Z,15.91
2023-05-15T00:13:03.269Z,16.07
2023-05-15T00:15:30.598Z,15.94
2023-05-15T00:17:57.956Z,15.91
2023-05-15T00:20:25.288Z,16.06
2023-05-15T00:22:52.662Z,16.11
2023-05-15T00:25:20.004Z,16.12
2023-05-15T00:27:47.290Z,16.15
2023-05-15T00:30:14.788Z,16.10
2023-05-15T00:32:42.522Z,16.04
2023-05-15T00:35:09.967Z,16.05
2023-05-15T00:37:37.477Z,16.00
2023-05-15T00:40:05.127Z,16.45
2023-05-15T00:42:32.534Z,16.09
2023-05-15T00:45:01.307Z,15.78
2023-05-15T00:47:29.315Z,15.32
2023-05-15T00:49:57.346Z,15.51
2023-05-15T00:52:25.333Z,15.64
2023-05-15T00:54:52.676Z,15.52
2023-05-15T00:57:21.458Z,15.70
2023-05-15T00:59:49.964Z,15.75
2023-05-15T01:02:18.625Z,15.70
2023-05-15T01:04:46.148Z,15.74
2023-05-15T01:07:15.050Z,15.93
2023-05-15T01:09:43.533Z,15.73
2023-05-15T01:12:11.556Z,15.88
2023-05-15T01:14:38.977Z,15.88
2023-05-15T01:17:07.149Z,15.79
2023-05-15T01:19:36.157Z,15.53
2023-05-15T01:22:03.398Z,15.30
2023-05-15T01:24:38.644Z,15.06
2023-05-15T01:27:05.854Z,15.04
2023-05-15T01:29:41.435Z,15.18
2023-05-15T01:32:24.522Z,15.09
2023-05-15T01:34:51.804Z,15.13
2023-05-15T01:37:22.127Z,15.25
2023-05-15T01:39:52.906Z,15.51
2023-05-15T01:42:20.728Z,15.72
2023-05-15T01:44:52.933Z,15.66
2023-05-15T01:47:22.217Z,15.43
2023-05-15T01:49:51.093Z,14.96
2023-05-15T01:52:20.800Z,15.25
2023-05-15T01:54:49.437Z,15.17
2023-05-15T01:57:17.166Z,15.30
2023-05-15T01:59:46.020Z,15.19
2023-05-15T02:02:14.090Z,15.12
2023-05-15T02:04:41.871Z,15.39
2023-05-15T02:07:09.237Z,15.29
2023-05-15T02:09:36.985Z,15.49
2023-05-15T02:12:05.332Z,15.53
2023-05-15T02:14:32.594Z,15.57
2023-05-15T02:16:59.839Z,15.77
2023-05-15T02:19:27.589Z,15.99
2023-05-15T02:21:54.926Z,15.77
2023-05-15T02:24:22.151Z,15.79
2023-05-15T02:26:59.913Z,15.89
2023-05-15T02:29:45.787Z,16.11
2023-05-15T02:32:18.585Z,16.06
2023-05-15T02:34:53.275Z,16.01
2023-05-15T02:37:24.714Z,15.98
2023-05-15T02:39:54.587Z,15.72
2023-05-15T02:42:22.024Z,15.67
2023-05-15T02:44:49.574Z,15.72
2023-05-15T02:47:17.718Z,15.56
2023-05-15T02:49:45.466Z,15.77
2023-05-15T02:52:13.073Z,15.69
2023-05-15T02:54:41.029Z,15.58
2023-05-15T02:57:08.203Z,15.64
2023-05-15T02:59:35.780Z,15.68
2023-05-15T03:02:03.767Z,15.81
2023-05-15T03:04:31.052Z,15.58
2023-05-15T03:06:58.269Z,15.63
2023-05-15T03:09:25.631Z,15.58
2023-05-15T03:11:52.763Z,15.42
2023-05-15T03:14:20.107Z,15.09
2023-05-15T03:16:47.294Z,15.30
2023-05-15T03:19:14.695Z,15.46
2023-05-15T03:21:42.009Z,15.54
2023-05-15T03:24:09.436Z,15.48
2023-05-15T03:26:36.865Z,15.25
2023-05-15T03:29:04.200Z,15.28
2023-05-15T03:31:31.534Z,14.91
2023-05-15T03:33:58.773Z,14.61
2023-05-15T03:36:26.010Z,14.41
2023-05-15T03:38:53.243Z,14.13
2023-05-15T03:41:21.450Z,14.94
2023-05-15T03:43:49.253Z,15.22
2023-05-15T03:46:19.140Z,15.26
2023-05-15T03:48:47.720Z,14.72
2023-05-15T03:51:15.033Z,14.29
2023-05-15T03:53:42.338Z,14.50
2023-05-15T03:56:09.833Z,14.09
2023-05-15T03:58:37.054Z,13.98
2023-05-15T04:01:04.257Z,14.52
2023-05-15T04:03:31.425Z,14.33
2023-05-15T04:05:58.671Z,15.11
2023-05-15T04:08:26.408Z,15.30
2023-05-15T04:10:54.473Z,14.96
2023-05-15T04:13:21.786Z,14.87
2023-05-15T04:15:48.980Z,14.77
2023-05-15T04:18:16.252Z,15.18
2023-05-15T04:20:43.422Z,15.22
2023-05-15T04:23:10.657Z,14.90
2023-05-15T04:25:37.963Z,15.37
2023-05-15T04:28:05.305Z,15.65
2023-05-15T04:30:32.519Z,16.03
2023-05-15T04:32:59.750Z,15.80
2023-05-15T04:35:27.128Z,15.08
2023-05-15T04:37:54.478Z,15.11
2023-05-15T04:40:21.865Z,14.75
2023-05-15T04:42:49.040Z,14.56
2023-05-15T04:45:16.259Z,14.67
2023-05-15T04:47:43.505Z,14.86
2023-05-15T04:50:10.888Z,14.61
2023-05-15T04:52:38.311Z,14.93
2023-05-15T04:55:05.785Z,15.48
2023-05-15T04:57:33.065Z,15.65
2023-05-15T05:00:00.390Z,15.67
2023-05-15T05:02:27.765Z,15.01
2023-05-15T05:04:55.122Z,15.02
2023-05-15T05:07:22.475Z,15.10
2023-05-15T05:09:49.791Z,14.95
2023-05-15T05:12:17.051Z,14.51
2023-05-15T05:14:44.976Z,14.56
2023-05-15T05:17:12.430Z,15.02
2023-05-15T05:19:39.729Z,15.40
2023-05-15T05:22:07.879Z,15.59
2023-05-15T05:24:37.590Z,15.34
2023-05-15T05:27:05.656Z,15.24
2023-05-15T05:29:33.219Z,15.32
2023-05-15T05:32:00.812Z,15.35
2023-05-15T05:34:28.214Z,14.67
2023-05-15T05:36:55.430Z,15.01
2023-05-15T05:39:22.641Z,15.35
2023-05-15T05:41:49.830Z,15.96
2023-05-15T05:44:17.025Z,16.89
2023-05-15T05:46:45.588Z,16.98
2023-05-15T05:49:13.166Z,16.54
2023-05-15T05:51:40.393Z,17.42
2023-05-15T05:54:07.602Z,16.83
2023-05-15T05:56:34.881Z,17.70
2023-05-15T05:59:02.404Z,16.38
2023-05-15T06:01:29.717Z,17.51
2023-05-15T06:03:57.562Z,17.53
2023-05-15T06:06:24.998Z,17.49
2023-05-15T06:08:54.170Z,18.11
2023-05-15T06:11:25.112Z,17.55
2023-05-15T06:13:52.945Z,17.36
2023-05-15T06:16:20.284Z,17.90
2023-05-15T06:18:47.563Z,18.80
2023-05-15T06:21:14.895Z,19.22
2023-05-15T06:23:42.106Z,17.79
2023-05-15T06:26:09.525Z,19.42
2023-05-15T06:28:36.680Z,19.35
2023-05-15T06:31:04.222Z,20.27
2023-05-15T06:33:31.631Z,18.27
2023-05-15T06:35:58.879Z,18.78
2023-05-15T06:38:26.652Z,19.75
2023-05-15T06:40:53.837Z,20.51
2023-05-15T06:43:21.061Z,22.21
2023-05-15T06:45:49.076Z,20.14
2023-05-15T06:48:16.254Z,22.91
2023-05-15T06:50:43.643Z,20.67
2023-05-15T06:53:12.258Z,19.22
2023-05-15T06:55:41.126Z,19.28
2023-05-15T06:58:08.397Z,20.44
2023-05-15T07:00:36.018Z,20.57
2023-05-15T07:03:03.362Z,21.66
2023-05-15T07:05:30.953Z,24.34
2023-05-15T07:07:58.328Z,23.61
2023-05-15T07:10:25.776Z,23.39
2023-05-15T07:12:53.505Z,23.79
2023-05-15T07:15:20.813Z,24.97
2023-05-15T07:17:48.248Z,25.91
2023-05-15T07:20:15.864Z,26.50
2023-05-15T07:22:55.134Z,24.18
2023-05-15T07:25:24.667Z,22.95
2023-05-15T07:27:52.256Z,24.27
2023-05-15T07:30:19.510Z,26.07
2023-05-15T07:32:49.057Z,27.21
2023-05-15T07:35:16.772Z,27.40
2023-05-15T07:37:44.007Z,26.44
2023-05-15T07:40:11.528Z,24.94
2023-05-15T07:42:39.861Z,24.91
2023-05-15T07:45:07.512Z,25.62
2023-05-15T07:47:35.842Z,25.71
2023-05-15T07:50:03.293Z,27.03
2023-05-15T07:52:30.783Z,29.63
2023-05-15T07:54:58.292Z,29.75
2023-05-15T07:57:26.624Z,26.90
2023-05-15T07:59:53.899Z,28.62
2023-05-15T08:02:21.372Z,29.79
2023-05-15T08:04:48.718Z,31.67
2023-05-15T08:07:16.304Z,30.57
2023-05-15T08:09:43.643Z,30.27
2023-05-15T08:12:17.822Z,30.77
2023-05-15T08:14:45.208Z,31.63
2023-05-15T08:17:12.585Z,28.19
2023-05-15T08:19:39.820Z,26.01
2023-05-15T08:22:07.143Z,28.93
2023-05-15T08:24:34.537Z,29.73
2023-05-15T08:27:01.746Z,29.30
2023-05-15T08:29:29.094Z,27.73
2023-05-15T08:31:56.352Z,27.88
2023-05-15T08:34:23.627Z,31.09
2023-05-15T08:36:51.044Z,29.93
2023-05-15T08:39:18.243Z,27.62
2023-05-15T08:41:56.058Z,30.34
2023-05-15T08:44:23.906Z,33.23
2023-05-15T08:46:52.523Z,31.62
2023-05-15T08:49:33.074Z,32.61
2023-05-15T08:52:00.593Z,30.97
2023-05-15T08:54:28.458Z,30.24
2023-05-15T08:56:55.789Z,29.16
2023-05-15T08:59:23.344Z,28.81
2023-05-15T09:01:51.042Z,30.42
2023-05-15T09:04:18.863Z,29.53
2023-05-15T09:06:47.657Z,30.20
2023-05-15T09:09:15.323Z,30.11
2023-05-15T09:11:45.803Z,27.66
2023-05-15T09:14:13.007Z,27.57
2023-05-15T09:16:40.411Z,30.55
2023-05-15T09:19:08.071Z,29.58
2023-05-15T09:21:35.463Z,28.28
2023-05-15T09:24:21.682Z,27.22
2023-05-15T09:27:05.344Z,28.60
2023-05-15T09:29:34.016Z,28.99
2023-05-15T09:32:05.055Z,27.94
2023-05-15T09:34:34.219Z,25.19
2023-05-15T09:37:02.945Z,26.55
2023-05-15T09:39:30.683Z,27.58
2023-05-15T09:42:07.881Z,27.55
2023-05-15T09:44:35.292Z,27.02
2023-05-15T09:47:05.551Z,28.73
2023-05-15T09:49:33.445Z,27.55
2023-05-15T09:52:01.168Z,26.82
2023-05-15T09:54:30.158Z,27.27
2023-05-15T09:57:07.276Z,26.64
2023-05-15T09:59:34.832Z,26.78
2023-05-15T10:02:02.346Z,24.21
2023-05-15T10:04:35.040Z,24.64
2023-05-15T10:07:02.420Z,25.73
2023-05-15T10:09:31.658Z,27.09
2023-05-15T10:11:59.235Z,25.53
2023-05-15T10:14:28.048Z,25.61
2023-05-15T10:16:55.858Z,25.90
2023-05-15T10:19:24.916Z,24.82
2023-05-15T10:21:53.297Z,26.71
2023-05-15T10:24:21.567Z,26.74
2023-05-15T10:26:49.294Z,25.97
2023-05-15T10:29:18.457Z,25.50
2023-05-15T10:31:46.349Z,24.34
2023-05-15T10:34:14.248Z,25.17
2023-05-15T10:36:43.146Z,26.10
2023-05-15T10:39:10.621Z,25.89
2023-05-15T10:41:39.018Z,27.00
2023-05-15T10:44:06.724Z,25.54
2023-05-15T10:46:35.639Z,25.44
2023-05-15T10:49:04.102Z,25.93
2023-05-15T10:51:33.005Z,25.81
2023-05-15T10:54:01.270Z,25.39
2023-05-15T10:56:32.205Z,24.61
2023-05-15T10:59:05.227Z,24.88
2023-05-15T11:01:33.285Z,24.78
2023-05-15T11:04:10.767Z,24.40
2023-05-15T11:06:38.787Z,24.47
2023-05-15T11:09:27.233Z,25.42
2023-05-15T11:11:57.167Z,23.50
2023-05-15T11:14:25.819Z,25.02
2023-05-15T11:16:53.446Z,23.33
2023-05-15T11:19:24.607Z,23.42
2023-05-15T11:22:10.339Z,23.49
2023-05-15T11:24:56.095Z,23.26
2023-05-15T11:27:24.459Z,22.97
2023-05-15T11:30:10.580Z,23.19
2023-05-15T11:32:41.586Z,24.02
2023-05-15T11:35:19.338Z,23.11
2023-05-15T11:37:47.794Z,23.67
2023-05-15T11:40:19.960Z,24.16
2023-05-15T11:43:07.615Z,24.44
2023-05-15T11:45:35.999Z,25.26
2023-05-15T11:48:04.526Z,23.78
2023-05-15T11:50:33.337Z,24.40
2023-05-15T11:53:04.648Z,24.41
2023-05-15T11:55:33.084Z,24.54
2023-05-15T11:58:00.785Z,23.97
2023-05-15T12:00:28.188Z,23.40
2023-05-15T12:02:55.821Z,23.50
2023-05-15T12:05:23.742Z,24.21
2023-05-15T12:07:51.271Z,23.04
2023-05-15T12:10:18.702Z,24.03
2023-05-15T12:12:46.576Z,23.77
2023-05-15T12:15:14.548Z,24.16
2023-05-15T12:17:43.004Z,23.25
2023-05-15T12:20:12.472Z,23.27
2023-05-15T12:22:39.912Z,23.72
2023-05-15T12:25:07.991Z,24.35
2023-05-15T12:27:36.409Z,24.01
2023-05-15T12:30:04.374Z,23.68
2023-05-15T12:32:32.284Z,24.20
2023-05-15T12:35:00.195Z,24.93
2023-05-15T12:37:28.222Z,23.60
2023-05-15T12:40:11.901Z,23.78
2023-05-15T12:43:05.492Z,23.86
2023-05-15T12:45:42.092Z,23.84
2023-05-15T12:48:14.284Z,24.33
2023-05-15T12:50:44.160Z,23.46
2023-05-15T12:53:25.798Z,24.34
2023-05-15T12:55:56.382Z,24.72
2023-05-15T12:58:23.734Z,25.04
2023-05-15T13:00:51.707Z,24.40
2023-05-15T13:03:20.558Z,23.57
2023-05-15T13:05:48.303Z,24.34
2023-05-15T13:08:17.540Z,24.60
2023-05-15T13:10:45.273Z,22.72
2023-05-15T13:13:13.182Z,23.53
2023-05-15T13:15:43.146Z,24.49
2023-05-15T13:18:10.547Z,23.85
2023-05-15T13:20:42.414Z,23.50
2023-05-15T13:23:11.066Z,23.04
2023-05-15T13:25:38.612Z,23.40
2023-05-15T13:28:06.974Z,23.83
2023-05-15T13:30:35.446Z,24.18
2023-05-15T13:33:03.019Z,24.08
2023-05-15T13:35:30.728Z,24.50
2023-05-15T13:38:01.639Z,25.16
2023-05-15T13:40:29.284Z,24.15
2023-05-15T13:42:56.505Z,23.78
2023-05-15T13:45:23.825Z,23.48
2023-05-15T13:47:51.744Z,23.41
2023-05-15T13:50:19.143Z,23.97
2023-05-15T13:52:46.740Z,24.62
2023-05-15T13:55:14.190Z,25.50
2023-05-15T13:57:42.130Z,24.99
2023-05-15T14:00:13.002Z,24.81
2023-05-15T14:02:41.592Z,25.35
2023-05-15T14:05:09.997Z,25.73
2023-05-15T14:07:37.452Z,25.70
2023-05-15T14:10:05.388Z,25.72
2023-05-15T14:12:33.220Z,25.32
2023-05-15T14:15:01.081Z,26.07
2023-05-15T14:17:28.872Z,24.83
2023-05-15T14:19:56.215Z,25.35
2023-05-15T14:22:25.151Z,25.58
2023-05-15T14:24:52.957Z,25.05
2023-05-15T14:27:20.388Z,24.71
2023-05-15T14:29:49.339Z,24.61
2023-05-15T14:32:17.388Z,23.97
2023-05-15T14:35:09.484Z,24.56
2023-05-15T14:37:36.793Z,24.52
2023-05-15T14:40:05.128Z,24.63
2023-05-15T14:42:32.706Z,24.57
2023-05-15T14:45:00.141Z,24.78
2023-05-15T14:47:28.556Z,24.96
2023-05-15T14:49:55.961Z,24.72
2023-05-15T14:52:23.298Z,24.71
2023-05-15T14:55:04.772Z,23.94
2023-05-15T14:57:35.897Z,24.06
2023-05-15T15:00:04.765Z,23.95
2023-05-15T15:02:32.419Z,24.22
2023-05-15T15:04:59.837Z,24.73
2023-05-15T15:07:28.887Z,25.07
2023-05-15T15:09:56.119Z,25.26
2023-05-15T15:12:23.437Z,24.76
2023-05-15T15:14:50.613Z,24.86
2023-05-15T15:17:18.429Z,25.04
2023-05-15T15:19:45.678Z,24.81
2023-05-15T15:22:12.895Z,25.05
2023-05-15T15:24:40.148Z,25.01
2023-05-15T15:27:07.386Z,25.06
2023-05-15T15:29:34.512Z,24.88
2023-05-15T15:32:01.818Z,24.97
2023-05-15T15:34:29.075Z,24.83
2023-05-15T15:36:56.442Z,24.96
2023-05-15T15:39:23.631Z,25.01
2023-05-15T15:41:50.899Z,25.12
2023-05-15T15:44:18.134Z,25.05
2023-05-15T15:46:45.454Z,25.30
2023-05-15T15:49:12.805Z,24.67
2023-05-15T15:51:41.321Z,24.83
2023-05-15T15:54:26.933Z,24.88
2023-05-15T15:56:54.303Z,24.74
2023-05-15T15:59:21.755Z,24.62
2023-05-15T16:01:48.939Z,24.65
2023-05-15T16:04:16.698Z,24.75
2023-05-15T16:06:44.243Z,24.23
2023-05-15T16:09:11.827Z,24.27
2023-05-15T16:11:39.200Z,24.47
2023-05-15T16:14:06.462Z,24.09
2023-05-15T16:16:33.912Z,24.13
2023-05-15T16:19:01.257Z,23.92
2023-05-15T16:21:28.701Z,24.21
2023-05-15T16:23:55.891Z,24.58
2023-05-15T16:26:23.041Z,24.72
2023-05-15T16:28:50.866Z,24.59
2023-05-15T16:31:18.107Z,24.61
2023-05-15T16:33:46.031Z,24.57
2023-05-15T16:36:13.392Z,24.24
2023-05-15T16:38:40.734Z,24.14
2023-05-15T16:41:07.925Z,24.62
2023-05-15T16:43:35.450Z,24.48
2023-05-15T16:46:02.923Z,24.06
2023-05-15T16:48:30.390Z,23.81
2023-05-15T16:50:57.532Z,23.76
2023-05-15T16:53:24.826Z,23.50
2023-05-15T16:55:52.841Z,23.41
2023-05-15T16:58:20.229Z,22.94
2023-05-15T17:00:47.403Z,23.04
2023-05-15T17:03:14.664Z,23.18
2023-05-15T17:05:42.000Z,22.72
2023-05-15T17:08:09.170Z,22.68
2023-05-15T17:10:36.352Z,22.37
2023-05-15T17:13:04.593Z,22.47
2023-05-15T17:15:31.969Z,22.65
2023-05-15T17:17:59.366Z,22.77
2023-05-15T17:20:26.966Z,22.73
2023-05-15T17:22:54.096Z,22.51
2023-05-15T17:25:21.297Z,22.91
2023-05-15T17:27:48.774Z,23.02
2023-05-15T17:30:16.195Z,23.32
2023-05-15T17:32:43.431Z,23.01
2023-05-15T17:35:11.053Z,23.08
2023-05-15T17:37:38.452Z,23.16
2023-05-15T17:40:06.327Z,23.50
2023-05-15T17:42:33.573Z,23.30
2023-05-15T17:45:00.854Z,23.33
2023-05-15T17:47:28.188Z,22.84
2023-05-15T17:49:55.622Z,23.10
2023-05-15T17:52:22.880Z,22.79
2023-05-15T17:54:50.146Z,23.01
2023-05-15T17:57:17.434Z,22.50
2023-05-15T17:59:44.628Z,22.43
2023-05-15T18:02:11.982Z,22.32
2023-05-15T18:04:43.597Z,22.53
2023-05-15T18:07:13.722Z,22.50
2023-05-15T18:09:42.746Z,22.35
2023-05-15T18:12:10.044Z,22.46
2023-05-15T18:14:39.217Z,22.25
2023-05-15T18:17:14.922Z,22.49
2023-05-15T18:19:45.215Z,22.44
2023-05-15T18:22:16.887Z,22.39
2023-05-15T18:24:45.336Z,22.30
2023-05-15T18:27:19.326Z,22.12
2023-05-15T18:29:47.567Z,22.19
2023-05-15T18:32:15.141Z,21.94
2023-05-15T18:34:50.394Z,22.12
2023-05-15T18:37:28.172Z,21.86
2023-05-15T18:40:03.513Z,21.54
2023-05-15T18:42:32.273Z,20.74
2023-05-15T18:45:03.572Z,20.72
2023-05-15T18:47:32.230Z,20.62
2023-05-15T18:50:22.772Z,20.51
2023-05-15T18:52:56.622Z,20.46
2023-05-15T18:55:34.573Z,20.18
2023-05-15T18:58:16.401Z,19.97
2023-05-15T19:01:04.175Z,19.88
2023-05-15T19:03:37.213Z,19.94
2023-05-15T19:06:04.512Z,20.11
2023-05-15T19:08:31.841Z,19.95
2023-05-15T19:11:01.364Z,20.18
2023-05-15T19:13:34.054Z,20.34
2023-05-15T19:16:01.409Z,20.32
2023-05-15T19:18:28.754Z,20.53
2023-05-15T19:20:56.865Z,20.62
2023-05-15T19:23:24.649Z,20.68
2023-05-15T19:25:52.125Z,20.70
2023-05-15T19:28:19.867Z,20.68
2023-05-15T19:30:47.214Z,20.41
2023-05-15T19:33:17.512Z,20.40
2023-05-15T19:35:44.891Z,20.61
2023-05-15T19:38:12.364Z,20.58
2023-05-15T19:40:42.750Z,20.62
2023-05-15T19:43:11.437Z,20.58
2023-05-15T19:45:44.650Z,20.72
2023-05-15T19:48:12.092Z,20.77
2023-05-15T19:50:39.862Z,20.93
2023-05-15T19:53:07.697Z,20.92
2023-05-15T19:55:35.314Z,20.85
2023-05-15T19:58:02.651Z,20.82
2023-05-15T20:00:30.024Z,20.89
2023-05-15T20:02:57.651Z,20.65
2023-05-15T20:05:25.014Z,20.64
2023-05-15T20:08:18.734Z,20.44
2023-05-15T20:11:14.156Z,20.55
2023-05-15T20:13:41.584Z,20.73
2023-05-15T20:16:10.867Z,20.68
2023-05-15T20:18:39.831Z,20.68
2023-05-15T20:21:07.372Z,20.80
2023-05-15T20:23:34.685Z,20.64
2023-05-15T20:26:02.381Z,20.92
2023-05-15T20:28:29.877Z,20.69
2023-05-15T20:30:57.300Z,20.64
2023-05-15T20:33:25.321Z,20.55
2023-05-15T20:35:54.087Z,20.57
2023-05-15T20:38:22.988Z,20.46
2023-05-15T20:40:50.667Z,20.39
2023-05-15T20:43:18.510Z,20.44
2023-05-15T20:45:50.139Z,20.41
2023-05-15T20:48:17.715Z,19.86
2023-05-15T20:50:45.016Z,19.81
2023-05-15T20:53:12.297Z,20.00
2023-05-15T20:55:39.567Z,19.95
2023-05-15T20:58:06.804Z,20.30
2023-05-15T21:00:34.201Z,20.24
2023-05-15T21:03:01.732Z,20.26
2023-05-15T21:05:29.249Z,20.43
2023-05-15T21:07:56.541Z,20.41
2023-05-15T21:10:23.845Z,20.44
2023-05-15T21:12:56.553Z,20.41
2023-05-15T21:15:26.251Z,20.32
2023-05-15T21:17:53.735Z,20.29
2023-05-15T21:20:21.369Z,20.34
2023-05-15T21:22:48.665Z,19.38
2023-05-15T21:25:16.506Z,19.11
2023-05-15T21:27:43.806Z,19.48
2023-05-15T21:30:11.633Z,19.78
2023-05-15T21:32:39.033Z,19.78
2023-05-15T21:35:06.513Z,20.26
2023-05-15T21:37:33.855Z,20.51
2023-05-15T21:40:01.980Z,20.85
2023-05-15T21:42:31.410Z,20.80
2023-05-15T21:44:59.127Z,20.55
2023-05-15T21:47:26.493Z,20.33
2023-05-15T21:49:53.848Z,20.38
2023-05-15T21:52:21.763Z,20.15
2023-05-15T21:54:49.165Z,19.80
2023-05-15T21:57:17.311Z,19.98
2023-05-15T21:59:44.660Z,20.25
2023-05-15T22:02:12.090Z,20.33
2023-05-15T22:04:39.648Z,20.33
2023-05-15T22:07:07.081Z,20.53
2023-05-15T22:09:34.556Z,20.06
2023-05-15T22:12:01.925Z,20.36
2023-05-15T22:14:29.530Z,20.69
2023-05-15T22:17:02.948Z,20.65
2023-05-15T22:19:33.530Z,20.56
2023-05-15T22:22:01.784Z,20.44
2023-05-15T22:24:29.259Z,20.39
2023-05-15T22:26:56.778Z,20.36
2023-05-15T22:29:24.223Z,20.07
2023-05-15T22:31:51.731Z,20.46
2023-05-15T22:34:19.126Z,20.46
2023-05-15T22:36:46.650Z,20.71
2023-05-15T22:39:13.953Z,20.40
2023-05-15T22:41:44.257Z,20.46
2023-05-15T22:44:12.253Z,20.40
2023-05-15T22:46:40.105Z,20.59
2023-05-15T22:49:12.650Z,20.70
2023-05-15T22:51:40.097Z,20.71
2023-05-15T22:54:07.434Z,20.81
2023-05-15T22:56:34.823Z,20.68
2023-05-15T22:59:02.118Z,20.77
2023-05-15T23:01:31.729Z,20.46
2023-05-15T23:03:59.140Z,20.38
2023-05-15T23:06:26.457Z,20.31
2023-05-15T23:08:53.918Z,20.32
2023-05-15T23:11:21.589Z,20.35
2023-05-15T23:13:48.980Z,20.56
2023-05-15T23:16:16.464Z,20.53
2023-05-15T23:18:44.166Z,20.27
2023-05-15T23:21:11.674Z,20.56
2023-05-15T23:23:39.231Z,20.66
2023-05-15T23:29:41.475Z,20.80
2023-05-15T23:32:08.870Z,20.84
2023-05-15T23:34:36.392Z,20.61
2023-05-15T23:37:03.850Z,20.73
2023-05-15T23:39:31.316Z,20.51
2023-05-15T23:42:00.171Z,20.78
2023-05-15T23:44:27.604Z,20.42
2023-05-15T23:46:55.098Z,20.43
2023-05-15T23:49:22.599Z,20.71
2023-05-15T23:51:50.207Z,20.64
2023-05-15T23:54:17.781Z,20.73
2023-05-15T23:56:45.581Z,20.74
2023-05-15T23:59:13.879Z,20.68
